createdAt,value
2022-12-22T00:00:44.063Z,7.86
2022-12-22T00:06:04.177Z,7.84
2022-12-22T00:11:29.346Z,7.85
2022-12-22T00:16:54.424Z,7.88
2022-12-22T00:22:18.729Z,7.86
2022-12-22T00:27:46.732Z,7.89
2022-12-22T00:33:07.113Z,7.90
2022-12-22T00:38:36.265Z,7.89
2022-12-22T00:43:55.650Z,7.96
2022-12-22T00:49:15.631Z,7.90
2022-12-22T00:54:36.856Z,7.89
2022-12-22T00:59:56.378Z,7.88
2022-12-22T01:05:15.782Z,7.87
2022-12-22T01:10:38.574Z,7.89
2022-12-22T01:15:58.027Z,7.93
2022-12-22T01:21:17.797Z,7.94
2022-12-22T01:26:38.254Z,7.84
2022-12-22T01:31:57.746Z,7.87
2022-12-22T01:37:17.156Z,7.86
2022-12-22T01:42:36.852Z,7.83
2022-12-22T01:47:56.244Z,7.81
2022-12-22T01:53:19.791Z,7.80
2022-12-22T01:58:47.973Z,7.75
2022-12-22T02:04:07.431Z,7.73
2022-12-22T02:10:40.775Z,7.85
2022-12-22T02:16:11.487Z,7.85
2022-12-22T02:21:35.408Z,7.87
2022-12-22T02:27:02.601Z,7.82
2022-12-22T02:32:23.862Z,7.84
2022-12-22T02:39:56.289Z,7.91
2022-12-22T02:45:42.535Z,8.00
2022-12-22T02:51:08.087Z,8.02
2022-12-22T02:56:29.429Z,8.07
2022-12-22T03:01:49.505Z,8.16
2022-12-22T03:07:09.146Z,8.32
2022-12-22T03:12:28.879Z,8.38
2022-12-22T03:17:48.296Z,8.44
2022-12-22T03:23:07.858Z,8.45
2022-12-22T03:28:09.137Z,8.44
2022-12-22T03:33:09.929Z,8.47
2022-12-22T03:38:10.800Z,8.47
2022-12-22T03:43:31.698Z,8.52
2022-12-22T03:48:32.523Z,8.51
2022-12-22T03:53:33.678Z,8.53
2022-12-22T03:58:34.634Z,8.52
2022-12-22T04:03:35.366Z,8.53
2022-12-22T04:08:36.214Z,8.53
2022-12-22T04:13:37.666Z,8.55
2022-12-22T04:18:38.436Z,8.56
2022-12-22T04:23:39.695Z,8.60
2022-12-22T04:28:41.000Z,8.52
2022-12-22T04:33:41.766Z,8.52
2022-12-22T04:38:43.052Z,8.49
2022-12-22T04:43:43.792Z,8.49
2022-12-22T04:48:44.580Z,8.45
2022-12-22T04:53:45.295Z,8.41
2022-12-22T04:58:46.077Z,8.43
2022-12-22T05:03:47.545Z,8.41
2022-12-22T05:08:48.476Z,8.39
2022-12-22T05:13:49.245Z,8.37
2022-12-22T05:18:50.502Z,8.38
2022-12-22T05:23:51.265Z,8.39
2022-12-22T05:28:52.291Z,8.38
2022-12-22T05:33:53.113Z,8.47
2022-12-22T05:38:53.965Z,8.54
2022-12-22T05:43:54.687Z,8.59
2022-12-22T05:48:55.489Z,8.60
2022-12-22T05:53:56.266Z,8.70
2022-12-22T05:58:57.046Z,8.79
2022-12-22T06:04:00.240Z,8.82
2022-12-22T06:09:02.122Z,8.88
2022-12-22T06:14:02.873Z,8.93
2022-12-22T06:19:04.187Z,8.96
2022-12-22T06:24:05.832Z,8.94
2022-12-22T06:29:06.645Z,8.90
2022-12-22T06:34:09.621Z,8.89
2022-12-22T06:39:10.690Z,8.93
2022-12-22T06:44:11.480Z,9.02
2022-12-22T06:49:12.222Z,9.01
2022-12-22T06:54:13.374Z,9.03
2022-12-22T06:59:14.380Z,9.11
2022-12-22T07:04:19.049Z,9.06
2022-12-22T07:09:19.896Z,8.95
2022-12-22T07:14:21.342Z,8.95
2022-12-22T07:19:22.122Z,8.87
2022-12-22T07:24:25.280Z,8.82
2022-12-22T07:29:25.989Z,8.79
2022-12-22T07:34:26.821Z,8.70
2022-12-22T07:39:27.747Z,8.72
2022-12-22T07:44:28.563Z,8.68
2022-12-22T07:51:21.145Z,8.79
2022-12-22T07:56:21.865Z,8.86
2022-12-22T08:01:23.859Z,8.87
2022-12-22T08:06:24.933Z,8.88
2022-12-22T08:11:26.217Z,8.86
2022-12-22T08:16:27.008Z,8.94
2022-12-22T08:21:27.754Z,8.94
2022-12-22T08:26:41.985Z,8.93
2022-12-22T08:31:43.522Z,8.86
2022-12-22T08:36:51.800Z,8.77
2022-12-22T08:41:53.642Z,8.74
2022-12-22T08:46:56.483Z,8.76
2022-12-22T08:51:57.548Z,8.71
2022-12-22T08:56:58.396Z,8.67
2022-12-22T09:02:04.228Z,8.64
2022-12-22T09:07:05.104Z,8.67
2022-12-22T09:12:06.458Z,8.68
2022-12-22T09:17:07.799Z,8.70
2022-12-22T09:22:08.909Z,8.73
2022-12-22T09:27:09.949Z,8.72
2022-12-22T09:32:10.832Z,8.70
2022-12-22T09:37:17.193Z,8.80
2022-12-22T09:42:20.393Z,8.79
2022-12-22T09:47:40.485Z,8.73
2022-12-22T09:52:50.451Z,8.76
2022-12-22T09:57:53.444Z,8.78
2022-12-22T10:03:26.012Z,8.79
2022-12-22T10:08:31.447Z,8.76
2022-12-22T10:13:32.734Z,8.74
2022-12-22T10:18:34.754Z,8.71
2022-12-22T10:23:44.600Z,8.75
2022-12-22T10:28:48.815Z,8.71
2022-12-22T10:33:56.128Z,8.67
2022-12-22T10:39:25.964Z,8.74
2022-12-22T10:44:30.617Z,8.65
2022-12-22T10:54:44.057Z,8.69
2022-12-22T10:59:57.225Z,8.66
2022-12-22T11:05:11.573Z,8.69
2022-12-22T11:10:48.722Z,8.69
2022-12-22T11:16:08.206Z,8.67
2022-12-22T11:21:35.546Z,8.65
2022-12-22T11:27:06.659Z,8.75
2022-12-22T11:32:30.105Z,8.80
2022-12-22T11:37:36.929Z,8.79
2022-12-22T11:43:01.111Z,8.82
2022-12-22T11:49:54.562Z,8.77
2022-12-22T11:55:30.037Z,8.79
2022-12-22T12:01:12.693Z,8.77
2022-12-22T12:10:40.314Z,8.83
2022-12-22T12:15:50.400Z,8.85
2022-12-22T12:21:23.862Z,8.77
2022-12-22T12:26:56.323Z,8.71
2022-12-22T12:32:24.307Z,8.74
2022-12-22T12:37:38.446Z,8.71
2022-12-22T12:42:44.484Z,8.71
2022-12-22T12:47:45.222Z,8.54
2022-12-22T12:53:08.759Z,8.46
2022-12-22T12:58:10.649Z,8.46
2022-12-22T13:04:02.332Z,8.25
2022-12-22T13:15:00.939Z,8.09
2022-12-22T13:20:02.301Z,8.03
2022-12-22T13:25:04.074Z,7.97
2022-12-22T13:30:11.200Z,8.00
2022-12-22T13:35:33.052Z,8.11
2022-12-22T13:40:43.287Z,8.12
2022-12-22T13:45:50.515Z,8.18
2022-12-22T13:50:54.544Z,8.15
2022-12-22T13:55:56.685Z,8.13
2022-12-22T14:01:16.267Z,8.04
2022-12-22T14:07:18.558Z,8.00
2022-12-22T14:12:25.614Z,7.97
2022-12-22T14:17:34.822Z,8.00
2022-12-22T14:22:39.789Z,7.95
2022-12-22T14:27:46.384Z,7.98
2022-12-22T14:32:54.678Z,7.86
2022-12-22T14:38:37.793Z,7.85
2022-12-22T14:43:38.670Z,7.81
2022-12-22T14:48:45.721Z,7.82
2022-12-22T14:53:55.861Z,7.77
2022-12-22T14:59:20.973Z,7.68
2022-12-22T15:04:21.874Z,7.64
2022-12-22T15:10:13.289Z,7.61
2022-12-22T15:15:18.767Z,7.60
2022-12-22T15:20:26.184Z,7.58
2022-12-22T15:25:27.004Z,7.62
2022-12-22T15:30:28.106Z,7.59
2022-12-22T15:35:34.410Z,7.70
2022-12-22T15:40:35.239Z,7.67
2022-12-22T15:45:37.683Z,7.62
2022-12-22T15:50:43.660Z,7.58
2022-12-22T15:55:48.034Z,7.63
2022-12-22T16:00:49.388Z,7.58
2022-12-22T16:05:51.934Z,7.48
2022-12-22T16:10:52.695Z,7.44
2022-12-22T16:15:53.923Z,7.36
2022-12-22T16:20:55.999Z,7.45
2022-12-22T16:26:01.784Z,7.33
2022-12-22T16:31:03.445Z,7.44
2022-12-22T16:36:04.670Z,7.34
2022-12-22T16:41:14.860Z,7.35
2022-12-22T16:46:19.255Z,7.41
2022-12-22T16:51:33.215Z,7.47
2022-12-22T16:56:34.693Z,7.29
2022-12-22T17:01:57.390Z,7.30
2022-12-22T17:07:00.193Z,7.29
2022-12-22T17:12:02.596Z,7.23
2022-12-22T17:17:03.733Z,7.33
2022-12-22T17:22:04.799Z,7.27
2022-12-22T17:27:06.340Z,7.36
2022-12-22T17:32:13.219Z,7.29
2022-12-22T17:37:20.027Z,7.31
2022-12-22T17:42:22.754Z,7.29
2022-12-22T17:47:31.334Z,7.40
2022-12-22T17:52:34.666Z,7.43
2022-12-22T17:57:35.503Z,7.68
2022-12-22T18:02:36.790Z,7.59
2022-12-22T18:07:43.518Z,7.68
2022-12-22T18:12:44.870Z,7.67
2022-12-22T18:17:45.626Z,7.77
2022-12-22T18:22:47.525Z,7.85
2022-12-22T18:27:49.097Z,7.84
2022-12-22T18:32:51.909Z,7.89
2022-12-22T18:37:54.975Z,7.93
2022-12-22T18:42:57.037Z,7.88
2022-12-22T18:47:57.775Z,7.92
2022-12-22T18:53:02.699Z,7.98
2022-12-22T18:58:03.450Z,8.06
2022-12-22T19:03:20.905Z,8.05
2022-12-22T19:08:24.707Z,8.14
2022-12-22T19:13:30.264Z,8.09
2022-12-22T19:18:31.096Z,8.03
2022-12-22T19:23:31.922Z,8.15
2022-12-22T19:28:36.701Z,8.14
2022-12-22T19:33:41.995Z,8.19
2022-12-22T19:38:48.458Z,8.21
2022-12-22T19:43:51.377Z,8.16
2022-12-22T19:48:52.141Z,8.19
2022-12-22T19:53:53.981Z,8.19
2022-12-22T19:58:56.737Z,8.09
2022-12-22T20:03:57.669Z,8.16
2022-12-22T20:09:00.949Z,8.13
2022-12-22T20:14:01.832Z,8.14
2022-12-22T20:19:02.871Z,8.16
2022-12-22T20:24:05.479Z,8.06
2022-12-22T20:29:11.024Z,8.08
2022-12-22T20:34:11.903Z,8.04
2022-12-22T20:39:15.542Z,8.07
2022-12-22T20:44:16.325Z,8.06
2022-12-22T20:49:17.260Z,7.97
2022-12-22T20:54:18.053Z,7.93
2022-12-22T20:59:22.131Z,7.96
2022-12-22T21:04:23.157Z,7.94
2022-12-22T21:09:25.029Z,7.97
2022-12-22T21:14:26.101Z,7.97
2022-12-22T21:19:26.901Z,8.00
2022-12-22T21:24:27.724Z,8.00
2022-12-22T21:29:29.003Z,8.11
2022-12-22T21:34:29.879Z,8.04
2022-12-22T21:39:40.942Z,8.07
2022-12-22T21:44:42.017Z,8.05
2022-12-22T21:49:43.012Z,8.00
2022-12-22T21:54:43.871Z,7.97
2022-12-22T21:59:45.204Z,7.94
2022-12-22T22:04:53.672Z,8.06
2022-12-22T22:09:55.315Z,8.05
2022-12-22T22:14:56.242Z,8.12
2022-12-22T22:19:57.045Z,8.05
2022-12-22T22:24:57.835Z,8.02
2022-12-22T22:29:58.776Z,8.00
2022-12-22T22:34:59.820Z,7.95
2022-12-22T22:40:00.855Z,7.91
2022-12-22T22:45:01.683Z,7.89
2022-12-22T22:50:05.820Z,7.95
2022-12-22T22:55:07.976Z,7.93
2022-12-22T23:00:12.381Z,7.91
2022-12-22T23:05:18.760Z,7.80
2022-12-22T23:10:23.212Z,7.71
2022-12-22T23:15:23.994Z,7.76
2022-12-22T23:20:24.836Z,7.80
2022-12-22T23:25:25.591Z,7.87
2022-12-22T23:30:26.336Z,7.80
2022-12-22T23:35:27.177Z,7.81
2022-12-22T23:40:55.188Z,7.80
2022-12-22T23:45:56.134Z,7.76
2022-12-22T23:50:56.888Z,7.77
2022-12-22T23:55:57.891Z,7.77
